Cragsmoor, New York
Current Conditions -  °F | °C
As of 2:54 PM on Monday 24 Nov 2014 (Local Time) from KMGJ Reporting Station
Few Clouds Few Clouds  
Wind Chill: 70°   Ceiling: Unl
Heat Index: 70°   Visibility: 10mi
Dew Point: 56°   Wind: 14mph
Humidity: 61%   Direction: 190°S
Pressure: 29.49"   Gusts: 22mph
Location:  41.67°N, 74.39°W
Report Text: KMGJ 241954Z AUTO 19012G19KT 10SM FEW044 21/13 A2949 RMK AO2 PK WND 20029/1857 SLP986 T02110133 TSNO
Loading
Personal Weather Stations






























Interactive Weather Map New forecast layout! Learn more

10-Day Weather Forecast

Advertisements
Track Severe Weather on mobile